CP3144 SLET-SLET
Flight info
| Callsign | CP3144 |
|---|---|
| Flight time | 0h 4m |
| Altitude | 3500 |
| Route | SLET |
| Aircraft | PA34/L-SDFGRY/S |
Departure
| Time | 2026-04-24 20:59 |
|---|---|
| Airport | El Trompillo Airport (SLET) |
Arrival
| Time | 2026-04-24 21:03 |
|---|---|
| Airport | El Trompillo Airport (SLET) |
| Time | Latitude | Longitude | Altitude | Speed | Heading |
|---|---|---|---|---|---|
| 2026-04-24 20:53 | -17.80225 | -63.17611 | 1377 ft | 0 kts | 74° |
| 2026-04-24 20:55 | -17.80225 | -63.17610 | 1377 ft | 0 kts | 74° |
| 2026-04-24 20:55 | -17.80218 | -63.17621 | 1376 ft | 6 kts | 243° |
| 2026-04-24 20:56 | -17.80232 | -63.17667 | 1378 ft | 9 kts | 278° |
| 2026-04-24 20:56 | -17.80174 | -63.17697 | 1378 ft | 12 kts | 351° |
| 2026-04-24 20:56 | -17.80089 | -63.17724 | 1378 ft | 14 kts | 292° |
| 2026-04-24 20:56 | -17.80067 | -63.17819 | 1379 ft | 13 kts | 281° |
| 2026-04-24 20:57 | -17.80054 | -63.17880 | 1377 ft | 0 kts | 283° |
| 2026-04-24 20:57 | -17.80053 | -63.17882 | 1377 ft | 2 kts | 283° |
| 2026-04-24 20:58 | -17.80160 | -63.17891 | 1378 ft | 0 kts | 146° |
| 2026-04-24 20:58 | -17.80395 | -63.17712 | 1378 ft | 82 kts | 148° |
| 2026-04-24 20:59 | -17.80952 | -63.17309 | 1676 ft | 99 kts | 139° |
| 2026-04-24 20:59 | -17.81573 | -63.16849 | 2085 ft | 116 kts | 141° |
| 2026-04-24 20:59 | -17.82311 | -63.16250 | 2090 ft | 150 kts | 135° |
| 2026-04-24 20:59 | -17.82831 | -63.15264 | 2094 ft | 154 kts | 107° |
| 2026-04-24 21:00 | -17.83056 | -63.14215 | 2279 ft | 144 kts | 78° |
| 2026-04-24 21:00 | -17.82544 | -63.13371 | 2492 ft | 142 kts | 38° |
| 2026-04-24 21:00 | -17.81726 | -63.12816 | 2716 ft | 141 kts | 11° |
| 2026-04-24 21:00 | -17.80799 | -63.13093 | 2935 ft | 146 kts | 322° |
| 2026-04-24 21:01 | -17.80109 | -63.13958 | 2936 ft | 162 kts | 311° |
| 2026-04-24 21:01 | -17.79385 | -63.14876 | 2927 ft | 158 kts | 317° |
| 2026-04-24 21:01 | -17.78623 | -63.15526 | 2929 ft | 132 kts | 324° |
| 2026-04-24 21:01 | -17.78148 | -63.15917 | 2825 ft | 131 kts | 324° |
| 2026-04-24 21:02 | -17.77775 | -63.16709 | 2576 ft | 125 kts | 274° |
| 2026-04-24 21:02 | -17.78036 | -63.17559 | 2314 ft | 115 kts | 254° |
| 2026-04-24 21:02 | -17.78559 | -63.18174 | 2025 ft | 111 kts | 219° |
| 2026-04-24 21:02 | -17.79281 | -63.18345 | 1816 ft | 110 kts | 169° |
| 2026-04-24 21:03 | -17.79966 | -63.18046 | 1476 ft | 101 kts | 144° |
| 2026-04-24 21:03 | -17.80388 | -63.17706 | 1378 ft | 34 kts | 147° |
| 2026-04-24 21:03 | -17.80422 | -63.17681 | 1378 ft | 9 kts | 330° |
| 2026-04-24 21:03 | -17.80305 | -63.17671 | 1378 ft | 20 kts | 22° |
| 2026-04-24 21:04 | -17.80203 | -63.17639 | 1378 ft | 9 kts | 350° |
| 2026-04-24 21:04 | -17.80200 | -63.17639 | 1378 ft | 0 kts | 350° |